Pagrindinis puslapis
METAR-TAF:

METAR-TAF

Oro uostai :

Nikolai, Aliaska, Jungtinės Amerikos Valstijos

platuma: 63-01-07N, ilguma: 154-21-30W, Aukštis: 134 m

Dabartinis oras

Ataskaita buvo paskelbta 25 minutes, ne 22:01 UTC
Vėjas 7 kt iš Rytų/Šiaurės Rytų
Temperatūra 11°C
Drėgmė 50%
Slėgis 995 hPa
Matomumas: 16.1 km
Apsiniaukę ne aukštis 10000 ft

METAR: PAFS 302201Z AUTO 07007KT 10SM OVC100 11/01 A2937 RMK AO2 SLP951 T01060011

Laikas: 14:26 (22:26 UTC)


TAF: trūkstamas

Orai ataskaitas ir orų prognozės (METAR, TAF).

turimą stotys yra geltonos ir raudonos taškus žemėlapyje.

Perkelti pele per norėdami pamatyti stoties vardą.

Tada spustelėkite, norėdami matyti oro stebėjimo ir prognozės.

Norėdami pakeisti žemėlapį: spustelėkite ant žalios mygtukų su juodo kryžiaus žemyn,; žalią mygtuką su brūkšneliu, jei norite nutolinti; arba žalių rodyklių gretimoms žemėlapius.


METAR-TAF: